createdAt,value
2022-10-17T00:00:59.166Z,12.00
2022-10-17T00:04:02.055Z,11.85
2022-10-17T00:07:05.006Z,11.90
2022-10-17T00:10:08.771Z,12.90
2022-10-17T00:13:12.628Z,11.65
2022-10-17T00:16:23.519Z,12.13
2022-10-17T00:19:26.286Z,12.13
2022-10-17T00:22:29.082Z,12.52
2022-10-17T00:25:32.160Z,11.60
2022-10-17T00:28:35.113Z,12.35
2022-10-17T00:31:37.960Z,12.43
2022-10-17T00:34:40.912Z,13.00
2022-10-17T00:37:43.647Z,13.18
2022-10-17T00:40:46.986Z,12.57
2022-10-17T00:43:59.678Z,12.57
2022-10-17T00:47:06.556Z,13.20
2022-10-17T00:50:13.295Z,12.73
2022-10-17T00:53:17.124Z,12.43
2022-10-17T00:56:21.370Z,12.20
2022-10-17T00:59:25.174Z,13.40
2022-10-17T01:02:28.829Z,11.50
2022-10-17T01:05:32.323Z,12.15
2022-10-17T01:08:35.752Z,12.80
2022-10-17T01:11:38.467Z,12.20
2022-10-17T01:14:55.158Z,12.02
2022-10-17T01:18:15.970Z,13.07
2022-10-17T01:21:32.016Z,13.05
2022-10-17T01:25:05.703Z,12.35
2022-10-17T01:28:22.982Z,13.00
2022-10-17T01:31:38.419Z,13.02
2022-10-17T01:35:17.389Z,12.77
2022-10-17T01:38:34.575Z,13.32
2022-10-17T01:41:47.103Z,13.35
2022-10-17T01:44:56.182Z,13.60
2022-10-17T01:48:03.717Z,13.52
2022-10-17T01:51:12.539Z,12.50
2022-10-17T01:54:22.397Z,12.75
2022-10-17T01:57:33.470Z,13.00
2022-10-17T02:00:38.047Z,13.45
2022-10-17T02:03:43.850Z,12.75
2022-10-17T02:06:46.703Z,12.90
2022-10-17T02:09:49.760Z,13.00
2022-10-17T02:13:02.282Z,13.07
2022-10-17T02:16:11.809Z,13.70
2022-10-17T02:19:39.524Z,12.60
2022-10-17T02:22:56.517Z,12.40
2022-10-17T02:26:21.649Z,13.23
2022-10-17T02:29:40.795Z,13.15
2022-10-17T02:33:13.108Z,12.60
2022-10-17T02:36:22.140Z,13.10
2022-10-17T02:39:27.044Z,12.97
2022-10-17T02:42:32.851Z,12.75
2022-10-17T02:45:38.050Z,12.32
2022-10-17T02:48:47.338Z,13.43
2022-10-17T02:52:05.135Z,13.48
2022-10-17T02:55:08.848Z,12.80
2022-10-17T02:58:43.291Z,12.82
2022-10-17T03:01:46.914Z,12.45
2022-10-17T03:04:49.883Z,12.65
2022-10-17T03:07:53.714Z,13.13
2022-10-17T03:10:56.691Z,12.40
2022-10-17T03:14:00.258Z,13.13
2022-10-17T03:17:03.682Z,13.70
2022-10-17T03:20:08.013Z,13.32
2022-10-17T03:23:10.922Z,12.70
2022-10-17T03:26:13.698Z,12.53
2022-10-17T03:29:16.493Z,12.75
2022-10-17T03:32:19.582Z,13.65
2022-10-17T03:35:23.225Z,12.77
2022-10-17T03:38:26.741Z,12.35
2022-10-17T03:41:29.495Z,13.50
2022-10-17T03:44:32.488Z,12.65
2022-10-17T03:47:35.725Z,13.55
2022-10-17T03:50:39.581Z,12.63
2022-10-17T03:53:42.811Z,11.73
2022-10-17T03:56:45.732Z,13.13
2022-10-17T03:59:53.081Z,13.27
2022-10-17T04:02:58.490Z,13.30
2022-10-17T04:06:04.962Z,12.80
2022-10-17T04:09:11.304Z,12.73
2022-10-17T04:12:24.255Z,13.57
2022-10-17T04:15:27.103Z,13.10
2022-10-17T04:18:30.252Z,13.10
2022-10-17T04:21:33.587Z,12.45
2022-10-17T04:24:41.331Z,13.13
2022-10-17T04:28:01.161Z,13.23
2022-10-17T04:31:06.687Z,13.20
2022-10-17T04:34:15.741Z,13.32
2022-10-17T04:37:18.742Z,12.60
2022-10-17T04:40:22.953Z,12.68
2022-10-17T04:43:27.792Z,12.50
2022-10-17T04:46:31.039Z,12.90
2022-10-17T04:49:33.788Z,13.57
2022-10-17T04:52:44.081Z,13.88
2022-10-17T04:55:48.133Z,13.50
2022-10-17T04:58:52.492Z,13.27
2022-10-17T05:01:55.625Z,13.48
2022-10-17T05:04:58.849Z,13.60
2022-10-17T05:08:01.705Z,14.35
2022-10-17T05:11:20.118Z,14.40
2022-10-17T05:14:23.403Z,13.50
2022-10-17T05:17:27.977Z,13.48
2022-10-17T05:20:31.299Z,14.07
2022-10-17T05:23:34.484Z,13.50
2022-10-17T05:26:37.404Z,14.57
2022-10-17T05:29:40.188Z,16.40
2022-10-17T05:32:55.093Z,14.77
2022-10-17T05:35:58.496Z,15.70
2022-10-17T05:39:01.619Z,16.25
2022-10-17T05:42:05.502Z,16.38
2022-10-17T05:45:09.870Z,17.10
2022-10-17T05:48:12.852Z,17.25
2022-10-17T05:51:15.783Z,17.45
2022-10-17T05:54:22.428Z,15.43
2022-10-17T06:12:46.238Z,13.30
2022-10-17T06:15:52.818Z,13.50
2022-10-17T06:18:56.066Z,12.10
2022-10-17T06:22:00.042Z,12.93
2022-10-17T06:25:04.273Z,12.57
2022-10-17T06:28:07.619Z,12.27
2022-10-17T06:31:14.076Z,11.93
2022-10-17T06:34:20.973Z,11.82
2022-10-17T06:37:23.981Z,12.03
2022-10-17T06:40:26.839Z,11.85
2022-10-17T06:43:30.660Z,10.80
2022-10-17T06:46:53.366Z,10.68
2022-10-17T06:49:57.511Z,10.13
2022-10-17T06:53:07.813Z,10.33
2022-10-17T06:56:44.856Z,10.73
2022-10-17T07:00:23.534Z,10.50
2022-10-17T07:03:30.335Z,10.35
2022-10-17T07:06:34.098Z,9.98
2022-10-17T07:09:42.972Z,10.30
2022-10-17T07:12:46.531Z,10.15
2022-10-17T07:15:49.496Z,9.48
2022-10-17T07:18:54.520Z,9.90
2022-10-17T07:21:57.548Z,9.90
2022-10-17T07:25:13.096Z,8.83
2022-10-17T07:28:31.225Z,9.90
2022-10-17T07:31:38.952Z,9.82
2022-10-17T07:34:42.111Z,10.10
2022-10-17T07:37:46.363Z,9.70
2022-10-17T07:40:56.138Z,10.03
2022-10-17T07:43:59.045Z,10.63
2022-10-17T07:47:07.944Z,9.45
2022-10-17T07:50:12.562Z,9.77
2022-10-17T07:53:15.760Z,9.65
2022-10-17T07:56:18.591Z,9.80
2022-10-17T07:59:21.640Z,10.13
2022-10-17T08:02:28.681Z,9.70
2022-10-17T08:05:32.598Z,9.65
2022-10-17T08:08:35.648Z,9.98
2022-10-17T08:11:38.740Z,9.53
2022-10-17T08:14:42.497Z,9.52
2022-10-17T08:17:45.265Z,9.85
2022-10-17T08:20:48.815Z,9.23
2022-10-17T08:23:51.641Z,10.05
2022-10-17T08:26:54.523Z,9.70
2022-10-17T08:30:04.898Z,9.65
2022-10-17T08:33:08.423Z,9.00
2022-10-17T08:36:14.237Z,9.40
2022-10-17T08:39:17.026Z,9.68
2022-10-17T08:42:31.935Z,9.50
2022-10-17T08:46:00.450Z,10.15
2022-10-17T08:49:10.039Z,9.45
2022-10-17T08:53:03.259Z,9.07
2022-10-17T09:01:44.504Z,9.63
2022-10-17T09:05:14.388Z,9.38
2022-10-17T09:08:22.996Z,9.45
2022-10-17T09:11:32.516Z,9.30
2022-10-17T09:14:51.804Z,8.63
2022-10-17T09:18:16.672Z,8.63
2022-10-17T09:21:37.775Z,9.10
2022-10-17T09:24:49.998Z,8.63
2022-10-17T09:28:24.887Z,9.00
2022-10-17T09:31:36.033Z,8.80
2022-10-17T09:34:40.196Z,8.30
2022-10-17T09:37:46.688Z,8.70
2022-10-17T09:41:02.194Z,8.13
2022-10-17T09:44:25.877Z,7.38
2022-10-17T09:47:42.435Z,7.30
2022-10-17T09:51:21.768Z,7.30
2022-10-17T09:54:41.707Z,6.80
2022-10-17T09:57:57.923Z,7.20
2022-10-17T10:01:21.030Z,7.05
2022-10-17T10:04:30.547Z,6.80
2022-10-17T10:07:40.065Z,7.27
2022-10-17T10:10:44.478Z,7.07
2022-10-17T10:13:49.350Z,7.55
2022-10-17T10:16:53.873Z,6.85
2022-10-17T10:19:57.102Z,5.95
2022-10-17T10:23:10.032Z,6.47
2022-10-17T10:26:25.968Z,6.13
2022-10-17T10:29:36.855Z,6.00
2022-10-17T10:32:40.357Z,5.35
2022-10-17T10:35:43.273Z,5.35
2022-10-17T10:38:53.799Z,5.03
2022-10-17T10:41:57.251Z,5.13
2022-10-17T10:45:35.984Z,5.35
2022-10-17T10:48:54.087Z,5.10
2022-10-17T10:52:02.107Z,5.30
2022-10-17T10:55:39.464Z,5.20
2022-10-17T10:59:15.465Z,4.95
2022-10-17T11:02:39.635Z,4.63
2022-10-17T11:06:29.195Z,5.13
2022-10-17T11:09:56.728Z,4.25
2022-10-17T11:13:29.886Z,3.87
2022-10-17T11:16:46.010Z,4.10
2022-10-17T11:20:04.632Z,4.57
2022-10-17T11:23:21.790Z,4.60
2022-10-17T11:26:31.886Z,4.72
2022-10-17T11:29:41.269Z,4.60
2022-10-17T11:32:54.233Z,4.18
2022-10-17T11:36:04.769Z,4.68
2022-10-17T11:39:49.501Z,4.43
2022-10-17T11:43:00.564Z,4.45
2022-10-17T11:46:22.908Z,4.53
2022-10-17T11:49:32.084Z,3.97
2022-10-17T11:52:56.336Z,4.47
2022-10-17T11:56:01.834Z,4.60
2022-10-17T11:59:29.885Z,4.30
2022-10-17T12:02:35.749Z,4.37
2022-10-17T12:06:00.148Z,4.03
2022-10-17T12:09:18.327Z,4.38
2022-10-17T12:12:33.409Z,4.00
2022-10-17T12:15:36.509Z,3.80
2022-10-17T12:18:39.406Z,3.63
2022-10-17T12:22:20.338Z,3.97
2022-10-17T12:25:33.780Z,4.00
2022-10-17T12:28:44.793Z,4.00
2022-10-17T12:31:47.635Z,3.83
2022-10-17T12:34:55.130Z,3.90
2022-10-17T12:38:02.387Z,4.05
2022-10-17T12:41:06.091Z,4.00
2022-10-17T12:44:18.195Z,4.00
2022-10-17T12:47:40.163Z,4.15
2022-10-17T12:54:53.581Z,3.97
2022-10-17T12:58:14.513Z,4.03
2022-10-17T13:01:34.390Z,4.00
2022-10-17T13:04:37.615Z,4.63
2022-10-17T13:08:03.543Z,4.33
2022-10-17T13:11:55.016Z,3.50
2022-10-17T13:14:34.225Z,3.70
2022-10-17T13:17:40.618Z,3.72
2022-10-17T13:21:01.749Z,4.25
2022-10-17T13:24:25.529Z,4.10
2022-10-17T13:27:30.039Z,3.78
2022-10-17T13:30:37.612Z,4.20
2022-10-17T13:33:42.407Z,3.45
2022-10-17T13:36:53.694Z,3.40
2022-10-17T13:40:00.297Z,4.27
2022-10-17T13:43:18.845Z,4.53
2022-10-17T13:46:39.527Z,4.28
2022-10-17T13:49:44.614Z,4.13
2022-10-17T13:52:47.414Z,3.70
2022-10-17T13:56:09.771Z,3.90
2022-10-17T13:59:26.165Z,3.85
2022-10-17T14:02:31.469Z,3.70
2022-10-17T14:05:34.530Z,4.18
2022-10-17T14:08:46.174Z,3.60
2022-10-17T14:12:01.167Z,4.00
2022-10-17T14:15:11.893Z,4.43
2022-10-17T14:18:21.369Z,3.58
2022-10-17T14:21:43.805Z,4.20
2022-10-17T14:24:48.804Z,3.95
2022-10-17T14:28:08.126Z,3.47
2022-10-17T14:31:34.221Z,4.30
2022-10-17T14:34:40.653Z,4.07
2022-10-17T14:37:51.918Z,4.00
2022-10-17T14:41:41.926Z,3.47
2022-10-17T14:44:52.930Z,3.40
2022-10-17T14:48:00.772Z,3.80
2022-10-17T14:51:16.607Z,3.10
2022-10-17T14:54:26.731Z,3.78
2022-10-17T14:57:44.236Z,3.10
2022-10-17T15:00:47.639Z,3.80
2022-10-17T15:03:50.523Z,4.80
2022-10-17T15:06:56.469Z,6.38
2022-10-17T15:09:59.167Z,5.60
2022-10-17T15:13:27.139Z,5.72
2022-10-17T15:16:31.028Z,6.13
2022-10-17T15:19:33.927Z,5.30
2022-10-17T15:22:36.734Z,7.78
2022-10-17T15:25:40.218Z,5.22
2022-10-17T15:28:43.415Z,6.88
2022-10-17T15:31:46.573Z,10.40
2022-10-17T15:34:49.515Z,5.45
2022-10-17T15:37:52.458Z,6.10
2022-10-17T15:40:55.591Z,7.20
2022-10-17T15:43:58.838Z,5.30
2022-10-17T15:47:01.949Z,7.00
2022-10-17T15:50:07.047Z,5.68
2022-10-17T15:53:13.182Z,8.23
2022-10-17T15:56:20.194Z,7.75
2022-10-17T15:59:32.499Z,6.10
2022-10-17T16:02:35.306Z,6.70
2022-10-17T16:05:38.075Z,6.43
2022-10-17T16:08:40.890Z,4.53
2022-10-17T16:11:45.426Z,4.10
2022-10-17T16:14:48.122Z,3.30
2022-10-17T16:17:52.504Z,4.50
2022-10-17T16:20:55.916Z,3.90
2022-10-17T16:23:59.273Z,4.25
2022-10-17T16:27:03.229Z,3.97
2022-10-17T16:30:08.032Z,3.45
2022-10-17T16:33:15.388Z,3.83
2022-10-17T16:36:19.101Z,4.10
2022-10-17T16:39:22.074Z,3.50
2022-10-17T16:42:25.080Z,3.58
2022-10-17T16:45:28.148Z,4.35
2022-10-17T16:48:31.149Z,4.77
2022-10-17T16:51:35.997Z,4.55
2022-10-17T16:54:39.520Z,3.83
2022-10-17T17:00:48.577Z,3.67
2022-10-17T17:03:53.429Z,3.73
2022-10-17T17:07:02.523Z,3.35
2022-10-17T17:10:06.787Z,3.45
2022-10-17T17:13:10.064Z,4.18
2022-10-17T17:16:16.453Z,5.00
2022-10-17T17:19:20.501Z,5.13
2022-10-17T17:22:23.482Z,4.20
2022-10-17T17:25:26.651Z,4.88
2022-10-17T17:28:30.864Z,4.65
2022-10-17T17:31:35.500Z,4.75
2022-10-17T17:34:41.607Z,4.57
2022-10-17T17:37:44.501Z,5.22
2022-10-17T17:40:50.659Z,6.55
2022-10-17T17:43:56.207Z,8.85
2022-10-17T17:46:59.065Z,9.00
2022-10-17T17:50:03.365Z,8.00
2022-10-17T17:53:07.093Z,6.82
2022-10-17T17:56:16.512Z,6.78
2022-10-17T17:59:19.400Z,8.10
2022-10-17T18:02:22.233Z,7.88
2022-10-17T18:05:24.966Z,8.00
2022-10-17T18:08:27.728Z,8.32
2022-10-17T18:11:30.473Z,9.70
2022-10-17T18:14:33.218Z,10.60
2022-10-17T18:17:36.105Z,10.10
2022-10-17T18:20:42.853Z,9.53
2022-10-17T18:23:48.591Z,7.72
2022-10-17T18:26:54.057Z,7.95
2022-10-17T18:29:57.146Z,7.25
2022-10-17T18:32:59.901Z,7.35
2022-10-17T18:36:07.164Z,6.10
2022-10-17T18:39:10.452Z,6.47
2022-10-17T18:42:13.430Z,7.05
2022-10-17T18:45:17.511Z,6.55
2022-10-17T18:48:20.320Z,7.25
2022-10-17T18:51:25.327Z,6.70
2022-10-17T18:54:29.407Z,7.53
2022-10-17T18:57:32.549Z,7.15
2022-10-17T19:00:36.970Z,6.65
2022-10-17T19:03:39.702Z,6.47
2022-10-17T19:06:44.643Z,6.70
2022-10-17T19:09:48.756Z,6.63
2022-10-17T19:12:51.525Z,6.20
2022-10-17T19:15:54.312Z,6.25
2022-10-17T19:19:06.108Z,5.78
2022-10-17T19:22:09.658Z,6.43
2022-10-17T19:25:12.718Z,6.55
2022-10-17T19:28:15.547Z,6.47
2022-10-17T19:31:24.085Z,6.50
2022-10-17T19:34:29.610Z,6.18
2022-10-17T19:37:32.939Z,6.03
2022-10-17T19:40:41.086Z,7.30
2022-10-17T19:43:44.188Z,7.13
2022-10-17T19:46:49.246Z,7.20
2022-10-17T19:49:52.269Z,7.20
2022-10-17T19:52:55.038Z,6.63
2022-10-17T19:55:58.390Z,6.55
2022-10-17T19:59:01.492Z,6.95
2022-10-17T20:02:04.658Z,8.13
2022-10-17T20:05:21.612Z,7.63
2022-10-17T20:11:34.644Z,7.82
2022-10-17T20:14:40.817Z,8.45
2022-10-17T20:17:43.936Z,8.60
2022-10-17T20:20:46.803Z,8.93
2022-10-17T20:23:51.041Z,7.93
2022-10-17T20:26:53.823Z,8.15
2022-10-17T20:30:01.829Z,8.30
2022-10-17T20:33:04.964Z,8.88
2022-10-17T20:36:09.899Z,9.02
2022-10-17T20:39:14.401Z,9.03
2022-10-17T20:42:17.223Z,9.63
2022-10-17T20:45:32.024Z,8.63
2022-10-17T20:48:42.887Z,9.82
2022-10-17T20:51:46.369Z,9.25
2022-10-17T20:54:49.881Z,10.30
2022-10-17T20:57:56.000Z,10.20
2022-10-17T21:00:58.782Z,9.93
2022-10-17T21:04:21.283Z,9.80
2022-10-17T21:07:25.418Z,10.20
2022-10-17T21:10:35.452Z,10.10
2022-10-17T21:13:38.978Z,10.05
2022-10-17T21:16:41.938Z,10.60
2022-10-17T21:19:44.582Z,10.20
2022-10-17T21:22:47.335Z,10.73
2022-10-17T21:25:50.063Z,10.60
2022-10-17T21:28:53.103Z,10.50
2022-10-17T21:31:56.367Z,11.60
2022-10-17T21:34:59.118Z,11.40
2022-10-17T21:38:01.845Z,11.38
2022-10-17T21:41:06.715Z,11.33
2022-10-17T21:44:18.245Z,11.77
2022-10-17T21:47:23.262Z,11.98
2022-10-17T21:50:29.714Z,12.05
2022-10-17T21:53:32.926Z,11.90
2022-10-17T21:56:36.503Z,11.97
2022-10-17T21:59:40.044Z,11.57
2022-10-17T22:02:42.819Z,11.32
2022-10-17T22:05:45.638Z,11.73
2022-10-17T22:08:48.670Z,11.48
2022-10-17T22:11:54.794Z,11.93
2022-10-17T22:14:57.484Z,11.90
2022-10-17T22:18:00.256Z,11.50
2022-10-17T22:21:03.760Z,11.98
2022-10-17T22:24:08.686Z,11.82
2022-10-17T22:27:11.506Z,13.13
2022-10-17T22:30:14.294Z,12.05
2022-10-17T22:33:17.568Z,11.70
2022-10-17T22:36:20.678Z,12.30
2022-10-17T22:39:23.380Z,11.77
2022-10-17T22:42:26.188Z,12.57
2022-10-17T22:45:28.980Z,12.13
2022-10-17T22:48:31.988Z,13.32
2022-10-17T22:51:34.848Z,12.90
2022-10-17T22:54:37.560Z,12.57
2022-10-17T22:57:41.021Z,12.70
2022-10-17T23:00:44.026Z,12.77
2022-10-17T23:03:47.064Z,12.13
2022-10-17T23:06:49.850Z,12.63
2022-10-17T23:09:53.066Z,12.65
2022-10-17T23:12:55.911Z,12.03
2022-10-17T23:15:58.924Z,11.80
2022-10-17T23:19:01.877Z,12.35
2022-10-17T23:22:06.206Z,12.30
2022-10-17T23:25:09.235Z,12.45
2022-10-17T23:28:12.404Z,12.13
2022-10-17T23:31:20.867Z,12.75
2022-10-17T23:34:23.602Z,12.10
2022-10-17T23:37:26.320Z,12.60
2022-10-17T23:40:29.439Z,12.75
2022-10-17T23:43:34.534Z,12.83
2022-10-17T23:46:37.506Z,11.98
2022-10-17T23:49:40.290Z,12.98
2022-10-17T23:52:43.211Z,13.30
2022-10-17T23:55:45.998Z,12.48
2022-10-17T23:58:49.016Z,13.13
